Time;durP1;ratioP1;P1;durP2;ratioP2;P2;SDS_P1;SDS_P2;PMS_P1;PMS_P2;Temp;Humidity;BMP_temperature;BMP_pressure;BME280_temperature;BME280_humidity;BME280_pressure;Samples;Min_cycle;Max_cycle;Signal;HPM_P1;HPM_P2
2022/07/03 00:00:25;;;;;;;3.15;1.80;;;22.10;86.20;;;;;;4900342;29;20032;-78
2022/07/03 00:02:50;;;;;;;4.65;2.13;;;22.10;87.70;;;;;;4900314;29;20084;-78
2022/07/03 00:05:16;;;;;;;8.73;1.90;;;22.00;87.90;;;;;;4898543;29;20115;-78
2022/07/03 00:07:42;;;;;;;8.10;2.17;;;22.00;87.40;;;;;;4900187;29;20033;-78
2022/07/03 00:10:08;;;;;;;4.20;1.67;;;21.90;86.70;;;;;;4900441;29;20040;-78
2022/07/03 00:12:35;;;;;;;5.45;1.70;;;22.00;87.90;;;;;;4900415;29;20057;-78
2022/07/03 00:15:00;;;;;;;2.90;1.35;;;21.90;88.00;;;;;;4900587;29;20039;-78
2022/07/03 00:17:26;;;;;;;4.80;1.30;;;21.90;87.90;;;;;;4917433;29;20032;-78
2022/07/03 00:19:52;;;;;;;3.00;1.35;;;21.90;88.10;;;;;;4919177;29;20103;-78
2022/07/03 00:22:18;;;;;;;5.32;1.48;;;21.90;88.50;;;;;;4917952;29;20035;-78
2022/07/03 00:24:57;;;;;;;4.88;1.40;;;21.90;88.80;;;;;;4919301;29;20540;-78
2022/07/03 00:27:25;;;;;;;5.95;1.90;;;22.00;88.70;;;;;;4900479;29;20021;-78
2022/07/03 00:29:55;;;;;;;5.22;1.77;;;21.90;88.90;;;;;;4899837;29;20029;-78
2022/07/03 00:32:24;;;;;;;2.15;1.00;;;21.80;88.30;;;;;;4899858;29;20040;-78
2022/07/03 00:34:52;;;;;;;5.18;1.35;;;21.80;88.90;;;;;;4899881;29;20072;-78
2022/07/03 00:37:18;;;;;;;1.58;0.80;;;21.80;88.80;;;;;;4899791;29;20024;-78
2022/07/03 00:39:45;;;;;;;3.65;1.08;;;21.70;89.50;;;;;;4900098;29;20051;-78
2022/07/03 00:42:12;;;;;;;2.47;1.27;;;21.70;89.60;;;;;;4899436;29;20135;-78
2022/07/03 00:44:44;;;;;;;5.25;1.10;;;21.70;90.30;;;;;;4899669;29;20071;-78
2022/07/03 00:47:12;;;;;;;3.80;1.38;;;21.60;90.20;;;;;;4900042;29;20024;-78
2022/07/03 00:49:39;;;;;;;2.80;1.23;;;21.50;90.40;;;;;;4899942;29;20108;-78
2022/07/03 00:52:08;;;;;;;4.82;1.40;;;21.50;90.10;;;;;;4909315;29;20036;-78
2022/07/03 00:54:35;;;;;;;3.10;1.33;;;21.50;90.50;;;;;;4918755;29;20032;-79
2022/07/03 00:57:02;;;;;;;3.65;1.30;;;21.50;90.20;;;;;;4918762;29;20593;-78
2022/07/03 00:59:28;;;;;;;2.10;1.15;;;21.50;90.30;;;;;;4918143;29;20028;-78
2022/07/03 01:02:03;;;;;;;2.70;1.08;;;21.50;90.30;;;;;;4918330;29;20034;-78
2022/07/03 01:04:53;;;;;;;4.03;1.38;;;21.50;90.30;;;;;;4918557;29;20051;-78
2022/07/03 01:07:28;;;;;;;3.53;1.52;;;21.60;90.10;;;;;;4886553;29;20120;-78
2022/07/03 01:10:12;;;;;;;2.67;1.35;;;21.60;90.40;;;;;;4899251;29;20024;-78
2022/07/03 01:13:01;;;;;;;3.80;1.70;;;21.60;90.50;;;;;;4910250;29;20056;-78
2022/07/03 01:15:40;;;;;;;6.95;2.20;;;21.60;90.40;;;;;;4911880;29;20473;-78
2022/07/03 01:18:16;;;;;;;4.65;1.95;;;21.50;89.90;;;;;;4899384;29;20025;-78
2022/07/03 01:20:46;;;;;;;3.25;1.30;;;21.50;89.80;;;;;;4899152;29;20478;-78
2022/07/03 01:23:30;;;;;;;5.13;1.70;;;21.50;90.40;;;;;;4899427;29;20025;-78
2022/07/03 01:26:02;;;;;;;3.42;1.48;;;21.40;90.50;;;;;;4899002;29;20020;-78
2022/07/03 01:28:27;;;;;;;5.40;1.55;;;21.40;90.40;;;;;;4898649;29;20502;-78
2022/07/03 01:30:54;;;;;;;6.55;2.08;;;21.30;90.20;;;;;;4898713;29;20039;-78
2022/07/03 01:33:25;;;;;;;6.65;1.85;;;21.20;90.50;;;;;;4898610;29;20062;-78
2022/07/03 01:36:07;;;;;;;6.85;1.92;;;21.20;91.10;;;;;;4899067;29;20112;-78
2022/07/03 01:38:40;;;;;;;4.10;1.73;;;21.20;90.90;;;;;;4898948;29;20366;-78
2022/07/03 01:41:11;;;;;;;3.08;1.73;;;21.10;91.40;;;;;;4898927;29;20021;-78
2022/07/03 01:43:44;;;;;;;6.97;2.10;;;20.90;91.60;;;;;;4898534;29;20102;-78
2022/07/03 01:46:11;;;;;;;3.17;1.70;;;20.70;92.40;;;;;;4898600;29;20442;-77
2022/07/03 01:48:42;;;;;;;7.18;1.88;;;20.80;92.70;;;;;;4898652;29;20070;-78
2022/07/03 01:51:12;;;;;;;11.02;1.70;;;20.90;92.50;;;;;;4899003;29;20433;-78
2022/07/03 01:53:45;;;;;;;3.55;1.40;;;20.90;92.60;;;;;;4898188;29;20031;-78
2022/07/03 01:56:12;;;;;;;5.20;1.60;;;20.90;92.80;;;;;;4898380;29;20040;-78
2022/07/03 01:58:37;;;;;;;9.88;2.05;;;20.90;92.60;;;;;;4897706;29;20399;-77
2022/07/03 02:01:21;;;;;;;4.85;1.63;;;20.90;92.40;;;;;;4897200;29;20102;-78
2022/07/03 02:04:23;;;;;;;7.32;1.77;;;20.90;92.10;;;;;;4898313;29;20028;-78
2022/07/03 02:07:04;;;;;;;3.00;1.08;;;20.90;92.40;;;;;;4898753;29;20033;-79
2022/07/03 02:09:48;;;;;;;8.25;1.50;;;20.90;92.00;;;;;;4898069;29;20024;-78
2022/07/03 02:12:17;;;;;;;3.92;1.25;;;20.90;91.90;;;;;;4897497;29;20079;-78
2022/07/03 02:14:54;;;;;;;7.05;1.73;;;20.90;92.20;;;;;;4897937;29;20091;-79
2022/07/03 02:17:21;;;;;;;8.13;1.67;;;20.90;92.00;;;;;;4898441;29;20036;-78
2022/07/03 02:19:52;;;;;;;3.10;1.13;;;20.80;92.10;;;;;;4896438;29;20057;-78
2022/07/03 02:22:35;;;;;;;5.05;1.17;;;20.80;91.90;;;;;;4897910;29;20036;-77
2022/07/03 02:25:05;;;;;;;4.38;1.20;;;20.70;92.40;;;;;;4898263;29;20060;-78
2022/07/03 02:28:10;;;;;;;1.93;1.10;;;20.70;92.10;;;;;;4897563;29;20385;-78
2022/07/03 02:30:41;;;;;;;4.53;1.20;;;20.70;92.10;;;;;;4897822;29;20028;-78
2022/07/03 02:33:11;;;;;;;5.75;1.10;;;20.60;92.10;;;;;;4897842;29;20033;-78
2022/07/03 02:35:37;;;;;;;2.58;1.20;;;20.60;92.30;;;;;;4914007;29;20040;-78
2022/07/03 02:38:20;;;;;;;6.55;1.73;;;20.50;92.40;;;;;;4902402;29;20479;-78
2022/07/03 02:41:08;;;;;;;15.50;1.33;;;20.40;92.60;;;;;;4897577;29;20032;-78
2022/07/03 02:43:38;;;;;;;7.00;1.60;;;20.40;92.90;;;;;;4897593;29;20100;-78
2022/07/03 02:46:49;;;;;;;3.95;1.08;;;20.50;93.00;;;;;;4896976;29;20036;-78
2022/07/03 02:49:26;;;;;;;5.68;1.35;;;20.30;93.10;;;;;;4897871;29;20029;-78
2022/07/03 02:52:17;;;;;;;4.03;1.20;;;20.20;93.70;;;;;;4897614;29;20092;-78
2022/07/03 02:54:47;;;;;;;2.17;1.10;;;20.20;93.70;;;;;;4914084;29;20040;-79
2022/07/03 02:57:20;;;;;;;5.95;1.35;;;20.10;94.30;;;;;;4914176;29;20051;-78
2022/07/03 02:59:51;;;;;;;4.82;1.38;;;20.00;94.60;;;;;;4913567;29;20054;-77
2022/07/03 03:02:22;;;;;;;6.43;1.48;;;20.10;94.80;;;;;;4914219;29;20468;-78
2022/07/03 03:05:05;;;;;;;8.48;1.67;;;20.00;95.40;;;;;;4912910;29;20040;-78
2022/07/03 03:07:39;;;;;;;3.85;1.23;;;20.10;95.70;;;;;;4909155;29;20497;-78
2022/07/03 03:10:07;;;;;;;5.75;1.63;;;20.00;96.00;;;;;;4895403;29;20033;-78
2022/07/03 03:12:37;;;;;;;5.50;1.20;;;20.00;96.20;;;;;;4900592;29;20119;-77
2022/07/03 03:15:04;;;;;;;5.63;1.50;;;20.00;96.40;;;;;;4913665;29;20055;-78
2022/07/03 03:17:53;;;;;;;9.15;1.20;;;19.90;96.90;;;;;;4897165;29;20039;-78
2022/07/03 03:20:26;;;;;;;5.63;1.67;;;20.00;97.20;;;;;;4914132;29;20036;-78
2022/07/03 03:23:13;;;;;;;7.28;1.52;;;20.00;97.50;;;;;;4912811;29;20060;-78
2022/07/03 03:25:39;;;;;;;10.73;1.67;;;19.80;98.10;;;;;;4912521;29;20501;-78
2022/07/03 03:28:05;;;;;;;5.63;1.63;;;19.70;98.80;;;;;;4900394;29;20043;-78
2022/07/03 03:30:31;;;;;;;3.30;1.60;;;19.70;99.40;;;;;;4895136;29;20032;-78
2022/07/03 03:32:56;;;;;;;4.75;1.70;;;19.70;99.40;;;;;;4879175;29;20041;-78
2022/07/03 03:35:22;;;;;;;6.35;1.92;;;19.60;99.90;;;;;;4878574;29;20033;-77
2022/07/03 03:37:48;;;;;;;6.43;1.42;;;19.60;99.90;;;;;;4887589;29;20032;-77
2022/07/03 03:40:15;;;;;;;12.43;1.98;;;19.70;99.90;;;;;;4896783;29;20033;-77
2022/07/03 03:42:42;;;;;;;7.50;1.60;;;19.70;99.90;;;;;;4897204;29;20036;-78
2022/07/03 03:45:08;;;;;;;7.60;1.90;;;19.80;99.90;;;;;;4897147;29;20028;-78
2022/07/03 03:47:34;;;;;;;10.55;2.00;;;19.80;99.90;;;;;;4897024;29;20477;-77
2022/07/03 03:50:01;;;;;;;9.60;1.88;;;19.80;99.90;;;;;;4897460;29;20055;-78
2022/07/03 03:52:28;;;;;;;8.23;1.98;;;19.70;99.90;;;;;;4896393;29;20024;-78
2022/07/03 03:54:54;;;;;;;4.90;1.63;;;19.60;99.90;;;;;;4906996;29;20071;-78
2022/07/03 03:57:24;;;;;;;5.05;1.20;;;19.60;99.90;;;;;;4899542;29;20485;-78
2022/07/03 03:59:50;;;;;;;7.40;2.05;;;19.50;99.90;;;;;;4900801;29;20029;-78
2022/07/03 04:02:17;;;;;;;6.35;1.70;;;19.50;99.90;;;;;;4900216;29;20036;-78
2022/07/03 04:04:43;;;;;;;8.15;1.60;;;19.30;99.90;;;;;;4900660;29;20100;-78
2022/07/03 04:07:09;;;;;;;5.95;2.08;;;19.30;99.90;;;;;;4900859;29;20388;-78
2022/07/03 04:09:35;;;;;;;7.15;1.92;;;19.40;99.90;;;;;;4900251;29;20024;-78
2022/07/03 04:12:01;;;;;;;6.47;1.98;;;19.40;99.90;;;;;;4899977;29;20057;-78
2022/07/03 04:14:27;;;;;;;7.50;1.58;;;19.50;99.90;;;;;;4900422;29;20492;-78
2022/07/03 04:16:53;;;;;;;9.70;1.67;;;19.40;99.90;;;;;;4900311;29;20037;-77
2022/07/03 04:19:18;;;;;;;6.72;1.70;;;19.30;99.90;;;;;;4900570;29;20081;-78
2022/07/03 04:21:44;;;;;;;9.52;1.77;;;19.30;99.90;;;;;;4899733;29;20032;-78
2022/07/03 04:24:10;;;;;;;9.07;1.77;;;19.30;99.90;;;;;;4899581;29;20024;-77
2022/07/03 04:26:35;;;;;;;9.18;1.70;;;19.30;99.90;;;;;;4899902;29;20099;-78
2022/07/03 04:29:01;;;;;;;9.05;1.80;;;19.20;99.90;;;;;;4900330;29;20051;-78
2022/07/03 04:31:27;;;;;;;7.75;1.80;;;19.20;99.90;;;;;;4900245;29;20025;-78
2022/07/03 04:33:52;;;;;;;7.72;1.50;;;19.20;99.90;;;;;;4900031;29;20103;-78
2022/07/03 04:36:18;;;;;;;9.15;1.92;;;19.30;99.90;;;;;;4899929;29;20040;-78
2022/07/03 04:38:44;;;;;;;6.28;1.50;;;19.30;99.90;;;;;;4900029;29;20031;-78
2022/07/03 04:41:10;;;;;;;9.23;2.08;;;19.30;99.90;;;;;;4900127;29;20454;-78
2022/07/03 04:43:38;;;;;;;9.13;1.60;;;19.10;99.90;;;;;;4879701;29;20024;-78
2022/07/03 04:46:04;;;;;;;9.30;2.00;;;19.10;99.90;;;;;;4905263;29;20463;-78
2022/07/03 04:48:31;;;;;;;9.27;1.80;;;19.10;99.90;;;;;;4912470;29;20104;-78
2022/07/03 04:50:57;;;;;;;6.57;1.50;;;19.20;99.90;;;;;;4899658;29;20094;-78
2022/07/03 04:53:23;;;;;;;9.25;1.67;;;19.20;99.90;;;;;;4899491;29;20036;-78
2022/07/03 04:55:48;;;;;;;6.78;1.58;;;19.10;99.90;;;;;;4899553;29;20043;-78
2022/07/03 04:58:14;;;;;;;11.30;1.88;;;19.20;99.90;;;;;;4899673;29;20032;-78
2022/07/03 05:00:43;;;;;;;5.25;1.70;;;19.10;99.90;;;;;;4899496;29;20060;-78
2022/07/03 05:03:08;;;;;;;6.88;1.88;;;19.00;99.90;;;;;;4899508;29;20028;-78
2022/07/03 05:05:34;;;;;;;9.90;1.60;;;19.00;99.90;;;;;;4898798;29;20036;-78
2022/07/03 05:08:00;;;;;;;7.35;1.70;;;18.90;99.90;;;;;;4898606;29;20104;-78
2022/07/03 05:10:26;;;;;;;10.55;2.92;;;19.00;99.90;;;;;;4899178;29;20035;-78
2022/07/03 05:12:52;;;;;;;9.45;1.52;;;19.10;99.90;;;;;;4899310;29;20489;-77
2022/07/03 05:15:18;;;;;;;10.35;1.70;;;19.10;99.90;;;;;;4899356;29;20112;-78
2022/07/03 05:17:44;;;;;;;10.15;2.13;;;19.20;99.90;;;;;;4898948;29;20499;-78
2022/07/03 05:20:29;;;;;;;11.73;2.20;;;19.10;99.90;;;;;;4899119;29;20037;-78
2022/07/03 05:22:57;;;;;;;6.32;1.35;;;19.00;99.90;;;;;;4896966;29;20029;-78
2022/07/03 05:25:23;;;;;;;6.35;1.50;;;19.10;99.90;;;;;;4899374;29;20354;-78
2022/07/03 05:27:52;;;;;;;6.68;1.30;;;19.10;99.90;;;;;;4899030;29;20095;-78
2022/07/03 05:30:19;;;;;;;4.18;1.13;;;19.20;99.90;;;;;;4899004;29;20161;-78
2022/07/03 05:32:45;;;;;;;10.65;2.00;;;19.20;99.90;;;;;;4899053;29;20079;-78
2022/07/03 05:35:11;;;;;;;14.40;2.30;;;19.10;99.90;;;;;;4898217;29;20120;-78
2022/07/03 05:37:36;;;;;;;9.63;1.92;;;19.10;99.90;;;;;;4898840;29;20024;-78
2022/07/03 05:40:04;;;;;;;6.85;1.50;;;19.20;99.90;;;;;;4898823;29;20102;-78
2022/07/03 05:42:30;;;;;;;7.60;1.98;;;19.20;99.90;;;;;;4908861;29;20021;-78
2022/07/03 05:44:55;;;;;;;12.90;1.75;;;19.10;99.90;;;;;;4917475;29;20038;-78
2022/07/03 05:47:21;;;;;;;5.68;2.00;;;19.20;99.90;;;;;;4917766;29;20023;-78
2022/07/03 05:49:47;;;;;;;7.90;1.63;;;19.30;99.90;;;;;;4917095;29;20032;-78
2022/07/03 05:52:13;;;;;;;6.70;1.52;;;19.20;99.90;;;;;;4917470;29;20051;-78
2022/07/03 05:54:39;;;;;;;8.13;1.55;;;19.10;99.90;;;;;;4917615;29;20477;-78
2022/07/03 05:57:05;;;;;;;9.15;2.20;;;19.10;99.90;;;;;;4917202;29;20028;-78
2022/07/03 05:59:31;;;;;;;8.88;1.75;;;19.20;99.90;;;;;;4917513;29;20071;-78
2022/07/03 06:01:57;;;;;;;7.88;2.22;;;19.20;99.90;;;;;;4908010;29;20063;-78
2022/07/03 06:04:22;;;;;;;7.68;1.90;;;19.20;99.90;;;;;;4898160;29;20393;-79
2022/07/03 06:06:48;;;;;;;17.05;2.25;;;19.30;99.90;;;;;;4897877;29;20043;-78
2022/07/03 06:09:13;;;;;;;9.25;1.70;;;19.50;99.90;;;;;;4898173;29;20088;-78
2022/07/03 06:11:39;;;;;;;7.95;1.80;;;19.40;99.90;;;;;;4894378;29;20045;-78
2022/07/03 06:14:05;;;;;;;7.65;2.13;;;19.50;99.90;;;;;;4879333;29;20429;-78
2022/07/03 06:16:31;;;;;;;7.18;1.95;;;19.30;99.90;;;;;;4879522;29;20033;-78
2022/07/03 06:18:56;;;;;;;7.28;1.63;;;19.30;99.90;;;;;;4879155;29;20169;-77
2022/07/03 06:21:22;;;;;;;8.45;2.00;;;19.40;99.90;;;;;;4885656;29;20455;-79
2022/07/03 06:23:47;;;;;;;10.88;2.55;;;19.30;99.90;;;;;;4898092;29;20474;-79
2022/07/03 06:26:14;;;;;;;8.18;1.88;;;19.40;99.90;;;;;;4898021;29;20025;-79
2022/07/03 06:28:40;;;;;;;7.20;1.55;;;19.50;99.90;;;;;;4897556;29;20565;-79
2022/07/03 06:31:06;;;;;;;6.90;1.75;;;19.50;99.90;;;;;;4897426;29;20104;-78
2022/07/03 06:33:32;;;;;;;12.88;2.33;;;19.60;99.90;;;;;;4897040;29;20068;-85
2022/07/03 06:35:57;;;;;;;11.23;1.92;;;19.60;99.90;;;;;;4897720;29;20025;-79
2022/07/03 06:38:23;;;;;;;7.60;1.60;;;19.70;99.90;;;;;;4897484;29;20573;-79
2022/07/03 06:40:49;;;;;;;8.77;1.90;;;19.80;99.90;;;;;;4897937;29;20438;-79
2022/07/03 06:43:15;;;;;;;10.57;1.65;;;19.80;99.90;;;;;;4897772;29;20031;-79
2022/07/03 06:45:40;;;;;;;11.75;1.80;;;19.90;99.90;;;;;;4897982;29;20481;-79
2022/07/03 06:48:06;;;;;;;7.55;1.92;;;19.90;99.90;;;;;;4897292;29;20028;-79
2022/07/03 06:50:32;;;;;;;5.40;1.80;;;20.00;99.90;;;;;;4897816;29;20029;-77
2022/07/03 06:52:57;;;;;;;4.88;1.55;;;20.00;99.90;;;;;;4897651;29;20033;-79
2022/07/03 06:55:23;;;;;;;9.57;1.92;;;20.00;99.90;;;;;;4897694;29;20036;-79
2022/07/03 06:57:48;;;;;;;7.07;1.80;;;20.10;99.90;;;;;;4897913;29;20033;-79
2022/07/03 07:00:14;;;;;;;8.82;2.00;;;20.10;99.90;;;;;;4897568;29;20036;-79
2022/07/03 07:02:40;;;;;;;11.55;2.60;;;20.20;99.90;;;;;;4897380;29;20025;-79
2022/07/03 07:05:06;;;;;;;15.88;2.17;;;20.20;99.90;;;;;;4897867;29;20386;-79
2022/07/03 07:07:32;;;;;;;4.20;1.48;;;20.30;99.90;;;;;;4897380;29;20392;-79
2022/07/03 07:09:57;;;;;;;6.28;1.55;;;20.20;99.90;;;;;;4897704;29;20025;-79
2022/07/03 07:12:25;;;;;;;2.47;1.20;;;20.30;99.90;;;;;;4900478;29;20048;-80
2022/07/03 07:14:51;;;;;;;4.03;1.35;;;20.30;99.90;;;;;;4908090;29;20036;-79
2022/07/03 07:17:16;;;;;;;5.45;1.63;;;20.40;99.90;;;;;;4897192;29;20037;-79
2022/07/03 07:19:42;;;;;;;5.32;1.55;;;20.40;99.90;;;;;;4897404;29;20032;-79
2022/07/03 07:22:07;;;;;;;6.75;1.98;;;20.40;99.90;;;;;;4897335;29;20041;-79
2022/07/03 07:24:33;;;;;;;7.45;1.70;;;20.60;99.90;;;;;;4897544;29;20060;-80
2022/07/03 07:26:59;;;;;;;7.85;1.55;;;20.60;99.90;;;;;;4897361;29;20032;-79
2022/07/03 07:29:24;;;;;;;8.00;1.70;;;20.60;99.90;;;;;;4897491;29;20517;-79
2022/07/03 07:31:50;;;;;;;4.82;1.50;;;20.60;99.90;;;;;;4898540;29;20033;-74
2022/07/03 07:34:16;;;;;;;13.63;2.25;;;20.70;99.90;;;;;;4900430;29;20028;-74
2022/07/03 07:36:42;;;;;;;7.43;1.63;;;20.70;99.90;;;;;;4899849;29;20029;-75
2022/07/03 07:39:07;;;;;;;8.30;1.90;;;20.90;99.90;;;;;;4900123;29;20452;-74
2022/07/03 07:41:33;;;;;;;10.25;2.17;;;20.80;99.90;;;;;;4900270;29;20050;-76
2022/07/03 07:44:00;;;;;;;4.25;1.48;;;20.80;99.90;;;;;;4898768;29;20039;-79
2022/07/03 07:46:26;;;;;;;4.75;1.80;;;20.80;99.90;;;;;;4899094;29;20117;-76
2022/07/03 07:48:51;;;;;;;8.07;2.10;;;20.70;99.90;;;;;;4899060;29;20557;-77
2022/07/03 07:51:17;;;;;;;6.80;1.83;;;20.80;99.90;;;;;;4899850;29;20028;-76
2022/07/03 07:53:42;;;;;;;9.43;1.80;;;20.90;99.90;;;;;;4899833;29;20020;-80
2022/07/03 07:56:08;;;;;;;9.00;2.10;;;21.00;99.90;;;;;;4910940;29;20082;-76
2022/07/03 07:58:34;;;;;;;10.27;2.67;;;21.00;99.90;;;;;;4898037;29;20028;-75
2022/07/03 08:06:28;;;;;;;8.02;2.28;;;21.10;99.90;;;;;;4898223;29;20027;-75
2022/07/03 08:08:55;;;;;;;10.48;2.47;;;21.20;99.90;;;;;;4898180;29;20452;-79
2022/07/03 08:11:20;;;;;;;7.03;1.83;;;21.30;99.90;;;;;;4897672;29;20532;-79
2022/07/03 08:13:46;;;;;;;13.90;1.90;;;21.50;99.90;;;;;;4898327;29;20109;-76
2022/07/03 08:16:13;;;;;;;5.88;1.80;;;21.60;99.90;;;;;;4898024;29;20032;-73
2022/07/03 08:18:38;;;;;;;7.57;1.70;;;21.70;99.90;;;;;;4898097;29;20053;-74
2022/07/03 08:21:04;;;;;;;4.88;2.13;;;21.70;99.90;;;;;;4897400;29;20131;-73
2022/07/03 08:23:30;;;;;;;7.53;1.70;;;21.90;99.90;;;;;;4898052;29;20013;-75
2022/07/03 08:25:55;;;;;;;6.10;1.65;;;22.00;99.80;;;;;;4897861;29;20021;-76
2022/07/03 08:28:21;;;;;;;6.80;1.80;;;22.30;99.80;;;;;;4897225;29;20722;-79
2022/07/03 08:30:47;;;;;;;8.98;1.75;;;22.40;98.90;;;;;;4898772;29;20041;-76
2022/07/03 08:33:13;;;;;;;6.93;2.10;;;22.60;98.80;;;;;;4899294;29;20025;-78
2022/07/03 08:35:40;;;;;;;5.53;1.77;;;22.80;98.20;;;;;;4899493;29;20108;-78
2022/07/03 10:04:34;;;;;;;6.00;2.00;;;27.70;82.80;;;;;;5490814;23;20276;-79
2022/07/03 10:07:00;;;;;;;9.02;2.05;;;28.00;81.10;;;;;;4916662;29;20404;-84
2022/07/03 10:09:29;;;;;;;4.18;1.50;;;28.10;80.60;;;;;;4916525;29;20024;-82
2022/07/03 10:11:56;;;;;;;3.58;1.35;;;28.20;80.20;;;;;;4916114;29;20024;-78
2022/07/03 10:14:24;;;;;;;20.67;3.05;;;28.30;78.50;;;;;;4916130;29;20048;-82
2022/07/03 10:16:51;;;;;;;5.68;1.92;;;28.30;78.10;;;;;;4916260;29;20096;-75
2022/07/03 10:19:27;;;;;;;4.30;1.40;;;28.00;77.80;;;;;;4916322;29;20039;-76
2022/07/03 10:21:54;;;;;;;6.07;1.70;;;28.30;79.50;;;;;;4916111;29;20385;-77
2022/07/03 10:24:27;;;;;;;4.63;1.77;;;28.40;79.20;;;;;;4915710;29;20032;-79
2022/07/03 10:26:54;;;;;;;3.97;1.55;;;28.60;78.40;;;;;;4915919;29;20052;-79
2022/07/03 10:29:25;;;;;;;8.45;2.10;;;28.70;78.70;;;;;;4915472;29;20031;-78
2022/07/03 10:31:51;;;;;;;5.00;1.35;;;28.40;78.60;;;;;;4916538;29;20111;-76
2022/07/03 10:34:24;;;;;;;10.57;1.73;;;28.60;76.50;;;;;;4914221;29;20112;-76
2022/07/03 10:37:04;;;;;;;6.95;1.90;;;28.60;75.90;;;;;;4916152;29;20028;-78
2022/07/03 10:39:38;;;;;;;6.47;1.65;;;28.70;75.60;;;;;;4913668;29;20027;-78
2022/07/03 10:45:06;;;;;;;4.80;1.40;;;29.00;76.50;;;;;;4915471;29;20498;-77
2022/07/03 10:47:42;;;;;;;5.25;1.90;;;29.40;75.60;;;;;;4915638;29;20036;-81
2022/07/03 10:50:19;;;;;;;7.68;1.48;;;29.10;74.20;;;;;;4915613;29;20024;-80
2022/07/03 10:52:45;;;;;;;9.23;2.30;;;29.20;75.10;;;;;;4916096;29;20027;-76
2022/07/03 10:55:13;;;;;;;5.15;1.67;;;29.20;72.90;;;;;;4913735;29;20028;-80
2022/07/03 10:57:41;;;;;;;3.92;1.75;;;29.30;73.30;;;;;;4907146;29;20028;-73
2022/07/03 11:00:18;;;;;;;5.43;1.60;;;29.30;72.70;;;;;;4899769;29;20041;-77
2022/07/03 11:02:51;;;;;;;8.52;1.50;;;29.30;73.00;;;;;;4898857;29;20024;-79
2022/07/03 11:05:37;;;;;;;5.95;1.63;;;29.90;73.80;;;;;;4896795;29;20122;-85
2022/07/03 11:08:04;;;;;;;4.72;1.70;;;29.90;71.50;;;;;;4903114;29;20051;-81
2022/07/03 11:10:32;;;;;;;7.72;1.80;;;29.80;71.00;;;;;;4898213;29;20028;-80
2022/07/03 11:13:12;;;;;;;3.92;1.42;;;30.00;72.10;;;;;;4899075;29;20074;-77
2022/07/03 11:15:49;;;;;;;3.20;1.33;;;29.70;71.20;;;;;;4903105;29;20039;-87
2022/07/03 11:18:26;;;;;;;8.07;1.50;;;29.80;70.90;;;;;;4912005;29;20028;-78
2022/07/03 11:20:52;;;;;;;5.13;1.30;;;29.80;71.10;;;;;;4912641;29;20028;-81
2022/07/03 11:23:27;;;;;;;4.38;1.52;;;30.10;70.80;;;;;;4903266;29;20031;-80
2022/07/03 11:25:53;;;;;;;6.13;1.63;;;29.90;69.70;;;;;;4913707;29;20388;-80
2022/07/03 11:28:48;;;;;;;2.38;1.35;;;29.90;69.70;;;;;;4913569;29;20035;-88
2022/07/03 11:31:14;;;;;;;6.10;1.60;;;30.10;71.50;;;;;;4924242;29;20408;-78
2022/07/03 11:34:00;;;;;;;4.00;1.55;;;30.10;68.90;;;;;;4901986;29;20031;-80
2022/07/03 11:36:28;;;;;;;4.47;1.67;;;29.70;69.30;;;;;;4905541;29;20116;-80
2022/07/03 11:38:57;;;;;;;2.80;1.40;;;30.20;68.20;;;;;;4908737;29;20020;-80
2022/07/03 11:41:25;;;;;;;7.22;1.88;;;30.10;68.00;;;;;;4908445;29;20032;-80
2022/07/03 11:43:58;;;;;;;4.65;1.92;;;30.10;68.90;;;;;;4910142;29;20025;-80
2022/07/03 11:46:26;;;;;;;2.55;1.42;;;30.00;66.80;;;;;;4910806;29;20025;-80
2022/07/03 11:49:08;;;;;;;4.35;1.20;;;30.10;67.20;;;;;;4910305;29;20404;-79
2022/07/03 11:51:36;;;;;;;3.92;1.63;;;30.20;68.20;;;;;;4900564;29;20369;-80
2022/07/03 11:54:03;;;;;;;7.18;1.58;;;30.20;66.90;;;;;;4896798;29;20031;-80
2022/07/03 11:56:30;;;;;;;6.65;1.85;;;30.10;67.90;;;;;;4896183;29;20025;-79
2022/07/03 11:58:57;;;;;;;4.88;1.30;;;30.30;67.60;;;;;;4912843;29;20069;-79
2022/07/03 12:01:26;;;;;;;6.07;1.88;;;30.30;66.60;;;;;;4900193;29;20032;-79
2022/07/03 12:04:16;;;;;;;3.67;1.60;;;30.30;65.20;;;;;;4897523;29;20029;-79
2022/07/03 12:06:49;;;;;;;6.82;1.70;;;30.30;66.00;;;;;;4913813;29;20507;-80
2022/07/03 12:09:22;;;;;;;4.80;1.30;;;30.40;64.60;;;;;;4912325;29;20032;-79
2022/07/03 12:12:05;;;;;;;4.20;1.50;;;30.40;64.90;;;;;;4904405;29;20088;-80
2022/07/03 12:14:38;;;;;;;2.47;1.27;;;30.70;64.80;;;;;;4911892;29;20035;-79
2022/07/03 12:17:04;;;;;;;4.22;1.52;;;30.90;62.10;;;;;;4897944;29;20088;-79
2022/07/03 12:19:30;;;;;;;5.13;1.55;;;30.70;62.40;;;;;;4910744;29;20032;-79
2022/07/03 12:21:56;;;;;;;3.40;1.65;;;30.90;63.20;;;;;;4900990;29;20499;-79
2022/07/03 12:24:22;;;;;;;5.45;1.58;;;31.00;61.60;;;;;;4911576;29;20575;-80
2022/07/03 12:26:48;;;;;;;6.43;1.73;;;30.90;63.70;;;;;;4910454;29;20028;-79
2022/07/03 12:29:15;;;;;;;3.38;1.17;;;30.90;62.30;;;;;;4908897;29;20160;-80
2022/07/03 12:31:45;;;;;;;7.90;2.08;;;30.90;63.90;;;;;;4903426;29;20032;-79
2022/07/03 12:34:15;;;;;;;7.25;1.70;;;31.00;64.00;;;;;;4909119;29;20389;-79
2022/07/03 12:36:57;;;;;;;2.47;1.30;;;30.90;63.30;;;;;;4905056;29;20044;-79
2022/07/03 12:39:23;;;;;;;4.38;1.60;;;30.90;63.80;;;;;;4905496;29;20119;-79
2022/07/03 12:41:49;;;;;;;4.07;1.35;;;31.20;62.60;;;;;;4912609;29;20108;-79
2022/07/03 12:44:20;;;;;;;4.07;0.93;;;31.20;61.90;;;;;;4913591;29;20024;-79
2022/07/03 12:46:46;;;;;;;5.18;1.27;;;31.30;61.70;;;;;;4908769;29;20020;-79
2022/07/03 12:49:12;;;;;;;4.95;1.45;;;31.20;61.90;;;;;;4909195;29;20058;-80
2022/07/03 12:51:44;;;;;;;5.60;1.35;;;31.20;61.70;;;;;;4905430;29;20039;-79
2022/07/03 12:54:12;;;;;;;4.65;1.73;;;31.10;61.70;;;;;;4912120;29;20389;-79
2022/07/03 12:56:38;;;;;;;5.32;1.52;;;31.20;59.90;;;;;;4908311;29;20031;-79
2022/07/03 12:59:16;;;;;;;4.72;1.08;;;31.20;60.10;;;;;;4911761;29;20039;-79
2022/07/03 13:01:59;;;;;;;6.95;1.20;;;31.40;59.50;;;;;;4906742;29;20045;-79
2022/07/03 13:04:36;;;;;;;2.50;1.10;;;31.30;58.80;;;;;;4905152;29;20493;-79
2022/07/03 13:07:07;;;;;;;4.22;1.23;;;31.00;59.10;;;;;;4907394;29;20405;-79
2022/07/03 13:09:36;;;;;;;5.07;1.58;;;30.90;59.50;;;;;;4907992;29;20029;-79
2022/07/03 13:12:03;;;;;;;3.38;1.35;;;30.90;59.90;;;;;;4910091;29;20108;-79
2022/07/03 13:14:29;;;;;;;4.47;1.30;;;31.00;59.50;;;;;;4909235;29;20032;-79
2022/07/03 13:16:57;;;;;;;4.10;1.17;;;30.90;59.00;;;;;;4914174;29;20032;-79
2022/07/03 13:19:25;;;;;;;6.10;1.40;;;30.90;59.10;;;;;;4911033;29;20460;-79
2022/07/03 13:21:53;;;;;;;3.53;1.30;;;31.00;58.30;;;;;;4914922;29;20039;-79
2022/07/03 13:24:19;;;;;;;7.18;1.35;;;31.10;58.00;;;;;;4915627;29;20589;-79
2022/07/03 13:26:46;;;;;;;3.85;1.23;;;31.20;58.80;;;;;;4921391;29;20020;-79
2022/07/03 13:29:12;;;;;;;4.32;1.35;;;31.30;58.10;;;;;;4914920;29;20075;-79
2022/07/03 13:31:38;;;;;;;4.65;1.40;;;31.50;58.20;;;;;;4917613;29;20028;-80
2022/07/03 13:34:04;;;;;;;6.13;1.48;;;31.10;59.60;;;;;;4915159;29;20032;-79
2022/07/03 13:36:30;;;;;;;4.40;1.40;;;31.00;58.90;;;;;;4916781;29;20110;-79
2022/07/03 13:38:57;;;;;;;2.30;1.08;;;30.60;59.30;;;;;;4915025;29;20020;-79
2022/07/03 13:41:23;;;;;;;4.30;1.17;;;30.20;60.50;;;;;;4915968;29;20028;-79
2022/07/03 13:43:50;;;;;;;3.85;1.30;;;30.20;59.60;;;;;;4916739;29;20023;-79
2022/07/03 13:46:19;;;;;;;3.53;1.20;;;30.30;59.90;;;;;;4908317;29;20048;-79
2022/07/03 13:48:44;;;;;;;5.28;1.45;;;30.80;60.90;;;;;;4916966;29;20016;-79
2022/07/03 13:51:10;;;;;;;3.17;1.35;;;31.00;59.40;;;;;;4916527;29;20039;-79
2022/07/03 13:53:37;;;;;;;6.35;1.35;;;31.20;57.80;;;;;;4916978;29;20024;-79
2022/07/03 13:56:03;;;;;;;2.47;1.00;;;31.20;58.80;;;;;;4915871;29;20032;-79
2022/07/03 13:58:28;;;;;;;5.55;1.20;;;31.30;57.50;;;;;;4916976;29;20516;-79
2022/07/03 14:00:54;;;;;;;5.38;1.63;;;31.20;56.50;;;;;;4915600;29;20083;-79
2022/07/03 14:03:20;;;;;;;2.85;1.02;;;31.20;57.30;;;;;;4916081;29;20024;-79
2022/07/03 14:05:50;;;;;;;5.10;1.25;;;31.10;57.90;;;;;;4916172;29;20048;-79
2022/07/03 14:08:20;;;;;;;2.53;1.15;;;30.90;58.10;;;;;;4916618;29;20072;-79
2022/07/03 14:10:46;;;;;;;3.47;1.13;;;31.10;59.30;;;;;;4915366;29;20052;-76
2022/07/03 14:13:12;;;;;;;3.15;0.95;;;31.00;58.30;;;;;;4915341;29;20036;-76
2022/07/03 14:15:37;;;;;;;5.43;1.33;;;31.10;58.10;;;;;;4914454;29;20119;-74
2022/07/03 14:18:03;;;;;;;3.00;1.30;;;31.20;57.60;;;;;;4915887;29;20051;-74
2022/07/03 14:20:29;;;;;;;2.92;1.20;;;30.90;58.40;;;;;;4913012;29;20054;-75
2022/07/03 14:22:55;;;;;;;4.47;1.20;;;30.80;58.90;;;;;;4915322;29;20024;-77
2022/07/03 14:25:20;;;;;;;3.58;1.23;;;30.50;58.30;;;;;;4915833;29;20496;-75
2022/07/03 14:33:15;;;;;;;7.30;1.40;;;31.10;58.50;;;;;;4915482;29;20080;-79
2022/07/03 14:35:40;;;;;;;4.93;1.35;;;31.20;57.40;;;;;;4915097;29;20023;-78